sensor_id;sensor_type;location;lat;lon;timestamp;temperature;humidity
3876;DHT22;1953;51.222;6.624;2022-10-03T00:07:31;12.10;1.00
3876;DHT22;1953;51.222;6.624;2022-10-03T00:12:36;12.00;1.00
3876;DHT22;1953;51.222;6.624;2022-10-03T00:17:23;12.00;1.00
3876;DHT22;1953;51.222;6.624;2022-10-03T00:22:16;12.00;1.00
3876;DHT22;1953;51.222;6.624;2022-10-03T00:27:09;12.00;1.00
3876;DHT22;1953;51.222;6.624;2022-10-03T00:32:00;11.90;1.00
3876;DHT22;1953;51.222;6.624;2022-10-03T00:36:49;11.90;1.00
3876;DHT22;1953;51.222;6.624;2022-10-03T00:52:42;11.90;1.00
3876;DHT22;1953;51.222;6.624;2022-10-03T00:57:54;11.90;1.00
3876;DHT22;1953;51.222;6.624;2022-10-03T01:02:47;11.90;1.00
3876;DHT22;1953;51.222;6.624;2022-10-03T01:08:03;11.90;1.00
3876;DHT22;1953;51.222;6.624;2022-10-03T01:13:07;11.90;1.00
3876;DHT22;1953;51.222;6.624;2022-10-03T01:18:05;11.90;1.00
3876;DHT22;1953;51.222;6.624;2022-10-03T01:28:28;11.80;1.00
3876;DHT22;1953;51.222;6.624;2022-10-03T01:33:38;11.80;1.00
3876;DHT22;1953;51.222;6.624;2022-10-03T01:38:26;11.80;1.00
3876;DHT22;1953;51.222;6.624;2022-10-03T01:43:19;11.70;1.00
3876;DHT22;1953;51.222;6.624;2022-10-03T01:48:06;11.70;1.00
3876;DHT22;1953;51.222;6.624;2022-10-03T01:52:55;11.70;1.00
3876;DHT22;1953;51.222;6.624;2022-10-03T01:57:45;11.60;1.00
3876;DHT22;1953;51.222;6.624;2022-10-03T02:02:45;11.70;1.00
3876;DHT22;1953;51.222;6.624;2022-10-03T02:07:43;11.70;1.00
3876;DHT22;1953;51.222;6.624;2022-10-03T02:12:31;11.60;1.00
3876;DHT22;1953;51.222;6.624;2022-10-03T02:17:23;11.60;1.00
3876;DHT22;1953;51.222;6.624;2022-10-03T02:22:15;11.60;1.00
3876;DHT22;1953;51.222;6.624;2022-10-03T02:27:46;11.50;1.00
3876;DHT22;1953;51.222;6.624;2022-10-03T02:54:12;11.30;1.00
3876;DHT22;1953;51.222;6.624;2022-10-03T02:59:31;11.30;1.00
3876;DHT22;1953;51.222;6.624;2022-10-03T03:04:52;11.30;1.00
3876;DHT22;1953;51.222;6.624;2022-10-03T03:10:05;11.30;1.00
3876;DHT22;1953;51.222;6.624;2022-10-03T03:15:45;11.30;1.00
3876;DHT22;1953;51.222;6.624;2022-10-03T03:20:49;11.20;1.00
3876;DHT22;1953;51.222;6.624;2022-10-03T03:25:52;11.20;1.00
3876;DHT22;1953;51.222;6.624;2022-10-03T03:30:43;11.20;1.00
3876;DHT22;1953;51.222;6.624;2022-10-03T03:35:37;11.10;1.00
3876;DHT22;1953;51.222;6.624;2022-10-03T03:40:30;11.10;1.00
3876;DHT22;1953;51.222;6.624;2022-10-03T03:45:42;11.00;1.00
3876;DHT22;1953;51.222;6.624;2022-10-03T03:50:36;10.90;1.00
3876;DHT22;1953;51.222;6.624;2022-10-03T03:55:49;10.90;1.00
3876;DHT22;1953;51.222;6.624;2022-10-03T04:00:57;10.90;1.00
3876;DHT22;1953;51.222;6.624;2022-10-03T04:06:06;10.90;1.00
3876;DHT22;1953;51.222;6.624;2022-10-03T04:11:01;10.90;1.00
3876;DHT22;1953;51.222;6.624;2022-10-03T04:21:53;10.90;1.00
3876;DHT22;1953;51.222;6.624;2022-10-03T04:26:47;10.80;1.00
3876;DHT22;1953;51.222;6.624;2022-10-03T04:31:38;10.80;1.00
3876;DHT22;1953;51.222;6.624;2022-10-03T04:36:48;10.80;1.00
3876;DHT22;1953;51.222;6.624;2022-10-03T04:41:39;10.70;1.00
3876;DHT22;1953;51.222;6.624;2022-10-03T04:46:28;10.60;1.00
3876;DHT22;1953;51.222;6.624;2022-10-03T04:51:18;10.60;1.00
3876;DHT22;1953;51.222;6.624;2022-10-03T04:56:15;10.60;1.00
3876;DHT22;1953;51.222;6.624;2022-10-03T05:01:09;10.60;1.00
3876;DHT22;1953;51.222;6.624;2022-10-03T05:05:56;10.60;1.00
3876;DHT22;1953;51.222;6.624;2022-10-03T05:10:49;10.50;1.00
3876;DHT22;1953;51.222;6.624;2022-10-03T05:15:40;10.50;1.00
3876;DHT22;1953;51.222;6.624;2022-10-03T05:20:43;10.50;1.00
3876;DHT22;1953;51.222;6.624;2022-10-03T05:25:37;10.50;1.00
3876;DHT22;1953;51.222;6.624;2022-10-03T05:30:34;11.70;1.00
3876;DHT22;1953;51.222;6.624;2022-10-03T05:35:28;10.50;1.00
3876;DHT22;1953;51.222;6.624;2022-10-03T05:40:17;10.60;1.00
3876;DHT22;1953;51.222;6.624;2022-10-03T05:45:03;10.60;1.00
3876;DHT22;1953;51.222;6.624;2022-10-03T05:49:59;10.70;1.00
3876;DHT22;1953;51.222;6.624;2022-10-03T05:55:09;10.80;1.00
3876;DHT22;1953;51.222;6.624;2022-10-03T06:00:16;10.80;1.00
3876;DHT22;1953;51.222;6.624;2022-10-03T06:05:28;10.90;1.00
3876;DHT22;1953;51.222;6.624;2022-10-03T06:10:43;11.00;1.00
3876;DHT22;1953;51.222;6.624;2022-10-03T06:15:52;11.00;1.00
3876;DHT22;1953;51.222;6.624;2022-10-03T06:20:58;11.00;1.00
3876;DHT22;1953;51.222;6.624;2022-10-03T06:26:13;11.00;1.00
3876;DHT22;1953;51.222;6.624;2022-10-03T06:31:24;11.00;1.00
3876;DHT22;1953;51.222;6.624;2022-10-03T06:36:39;11.10;1.00
3876;DHT22;1953;51.222;6.624;2022-10-03T06:42:00;11.20;1.00
3876;DHT22;1953;51.222;6.624;2022-10-03T06:47:15;11.30;1.00
3876;DHT22;1953;51.222;6.624;2022-10-03T06:57:35;11.50;1.00
3876;DHT22;1953;51.222;6.624;2022-10-03T07:02:44;11.50;1.00
3876;DHT22;1953;51.222;6.624;2022-10-03T07:08:12;11.50;1.00
3876;DHT22;1953;51.222;6.624;2022-10-03T07:13:14;11.50;1.00
3876;DHT22;1953;51.222;6.624;2022-10-03T07:18:35;11.60;1.00
3876;DHT22;1953;51.222;6.624;2022-10-03T07:23:59;11.80;1.00
3876;DHT22;1953;51.222;6.624;2022-10-03T07:34:17;12.20;1.00
3876;DHT22;1953;51.222;6.624;2022-10-03T07:39:41;12.40;1.00
3876;DHT22;1953;51.222;6.624;2022-10-03T07:44:54;12.60;1.00
3876;DHT22;1953;51.222;6.624;2022-10-03T07:50:02;12.70;1.00
3876;DHT22;1953;51.222;6.624;2022-10-03T07:55:19;12.80;1.00
3876;DHT22;1953;51.222;6.624;2022-10-03T08:00:16;13.00;1.00
3876;DHT22;1953;51.222;6.624;2022-10-03T08:05:26;13.10;1.00
3876;DHT22;1953;51.222;6.624;2022-10-03T08:10:25;13.30;1.00
3876;DHT22;1953;51.222;6.624;2022-10-03T08:15:10;13.40;1.00
3876;DHT22;1953;51.222;6.624;2022-10-03T08:20:11;13.40;1.00
3876;DHT22;1953;51.222;6.624;2022-10-03T08:30:21;13.50;1.00
3876;DHT22;1953;51.222;6.624;2022-10-03T08:40:54;13.70;1.00
3876;DHT22;1953;51.222;6.624;2022-10-03T08:45:54;13.70;1.00
3876;DHT22;1953;51.222;6.624;2022-10-03T08:51:12;13.90;1.00
3876;DHT22;1953;51.222;6.624;2022-10-03T08:56:02;14.10;1.00
3876;DHT22;1953;51.222;6.624;2022-10-03T09:01:21;14.30;1.00
3876;DHT22;1953;51.222;6.624;2022-10-03T09:11:48;14.60;1.00
3876;DHT22;1953;51.222;6.624;2022-10-03T09:16:49;14.70;1.00
3876;DHT22;1953;51.222;6.624;2022-10-03T09:27:24;15.00;1.00
3876;DHT22;1953;51.222;6.624;2022-10-03T09:37:46;15.30;1.00
3876;DHT22;1953;51.222;6.624;2022-10-03T09:43:03;15.40;1.00
3876;DHT22;1953;51.222;6.624;2022-10-03T09:58:43;15.90;1.00
3876;DHT22;1953;51.222;6.624;2022-10-03T10:09:24;16.20;1.00
3876;DHT22;1953;51.222;6.624;2022-10-03T10:14:35;16.60;1.00
3876;DHT22;1953;51.222;6.624;2022-10-03T10:19:39;16.60;1.00
3876;DHT22;1953;51.222;6.624;2022-10-03T10:25:05;16.70;1.00
3876;DHT22;1953;51.222;6.624;2022-10-03T10:30:19;16.80;1.00
3876;DHT22;1953;51.222;6.624;2022-10-03T10:46:27;17.30;1.00
3876;DHT22;1953;51.222;6.624;2022-10-03T10:51:44;17.40;1.00
3876;DHT22;1953;51.222;6.624;2022-10-03T11:08:06;17.60;1.00
3876;DHT22;1953;51.222;6.624;2022-10-03T11:13:38;17.70;1.00
3876;DHT22;1953;51.222;6.624;2022-10-03T11:24:39;18.00;1.00
3876;DHT22;1953;51.222;6.624;2022-10-03T11:35:20;18.30;1.00
3876;DHT22;1953;51.222;6.624;2022-10-03T11:40:30;18.50;1.00
3876;DHT22;1953;51.222;6.624;2022-10-03T11:45:22;18.50;1.00
3876;DHT22;1953;51.222;6.624;2022-10-03T11:50:37;18.40;1.00
3876;DHT22;1953;51.222;6.624;2022-10-03T11:55:30;18.40;1.00
3876;DHT22;1953;51.222;6.624;2022-10-03T12:00:15;18.70;1.00
3876;DHT22;1953;51.222;6.624;2022-10-03T12:08:24;19.10;1.00
3876;DHT22;1953;51.222;6.624;2022-10-03T12:13:30;19.20;1.00
3876;DHT22;1953;51.222;6.624;2022-10-03T12:18:23;19.40;1.00
3876;DHT22;1953;51.222;6.624;2022-10-03T12:23:19;19.50;1.00
3876;DHT22;1953;51.222;6.624;2022-10-03T12:28:10;19.80;1.00
3876;DHT22;1953;51.222;6.624;2022-10-03T12:33:13;20.20;1.00
3876;DHT22;1953;51.222;6.624;2022-10-03T12:38:14;20.20;1.00
3876;DHT22;1953;51.222;6.624;2022-10-03T12:43:08;19.90;1.00
3876;DHT22;1953;51.222;6.624;2022-10-03T12:48:03;20.00;1.00
3876;DHT22;1953;51.222;6.624;2022-10-03T12:53:05;20.00;1.00
3876;DHT22;1953;51.222;6.624;2022-10-03T12:57:59;19.90;1.00
3876;DHT22;1953;51.222;6.624;2022-10-03T13:02:51;19.70;1.00
3876;DHT22;1953;51.222;6.624;2022-10-03T13:07:42;19.60;1.00
3876;DHT22;1953;51.222;6.624;2022-10-03T13:12:39;19.60;1.00
3876;DHT22;1953;51.222;6.624;2022-10-03T13:17:30;19.60;1.00
3876;DHT22;1953;51.222;6.624;2022-10-03T13:22:37;19.50;1.00
3876;DHT22;1953;51.222;6.624;2022-10-03T13:27:30;19.50;1.00
3876;DHT22;1953;51.222;6.624;2022-10-03T13:32:21;19.60;1.00
3876;DHT22;1953;51.222;6.624;2022-10-03T13:37:10;19.70;1.00
3876;DHT22;1953;51.222;6.624;2022-10-03T13:42:08;20.00;1.00
3876;DHT22;1953;51.222;6.624;2022-10-03T13:46:55;20.20;1.00
3876;DHT22;1953;51.222;6.624;2022-10-03T13:51:47;20.30;1.00
3876;DHT22;1953;51.222;6.624;2022-10-03T13:56:53;20.40;1.00
3876;DHT22;1953;51.222;6.624;2022-10-03T14:01:46;20.30;1.00
3876;DHT22;1953;51.222;6.624;2022-10-03T14:06:33;20.40;1.00
3876;DHT22;1953;51.222;6.624;2022-10-03T14:11:23;20.40;1.00
3876;DHT22;1953;51.222;6.624;2022-10-03T14:16:11;20.60;1.00
3876;DHT22;1953;51.222;6.624;2022-10-03T14:26:22;21.00;1.00
3876;DHT22;1953;51.222;6.624;2022-10-03T14:31:11;21.10;1.00
3876;DHT22;1953;51.222;6.624;2022-10-03T14:36:03;21.40;1.00
3876;DHT22;1953;51.222;6.624;2022-10-03T14:40:59;21.60;1.00
3876;DHT22;1953;51.222;6.624;2022-10-03T14:45:47;21.50;1.00
3876;DHT22;1953;51.222;6.624;2022-10-03T14:50:31;21.30;1.00
3876;DHT22;1953;51.222;6.624;2022-10-03T14:55:18;21.10;1.00
3876;DHT22;1953;51.222;6.624;2022-10-03T15:00:04;21.20;1.00
3876;DHT22;1953;51.222;6.624;2022-10-03T15:04:47;21.40;1.00
3876;DHT22;1953;51.222;6.624;2022-10-03T15:09:41;21.40;1.00
3876;DHT22;1953;51.222;6.624;2022-10-03T15:14:25;21.10;1.00
3876;DHT22;1953;51.222;6.624;2022-10-03T15:19:13;20.70;1.00
3876;DHT22;1953;51.222;6.624;2022-10-03T15:24:01;20.60;1.00
3876;DHT22;1953;51.222;6.624;2022-10-03T15:28:47;20.50;1.00
3876;DHT22;1953;51.222;6.624;2022-10-03T15:33:32;20.30;1.00
3876;DHT22;1953;51.222;6.624;2022-10-03T15:38:21;20.00;1.00
3876;DHT22;1953;51.222;6.624;2022-10-03T15:43:08;20.10;1.00
3876;DHT22;1953;51.222;6.624;2022-10-03T15:48:00;20.00;1.00
3876;DHT22;1953;51.222;6.624;2022-10-03T15:52:48;20.10;1.00
3876;DHT22;1953;51.222;6.624;2022-10-03T15:57:35;20.20;1.00
3876;DHT22;1953;51.222;6.624;2022-10-03T16:02:24;20.10;1.00
3876;DHT22;1953;51.222;6.624;2022-10-03T16:07:11;19.90;1.00
3876;DHT22;1953;51.222;6.624;2022-10-03T16:12:03;19.90;1.00
3876;DHT22;1953;51.222;6.624;2022-10-03T16:16:53;19.80;1.00
3876;DHT22;1953;51.222;6.624;2022-10-03T16:21:47;19.80;1.00
3876;DHT22;1953;51.222;6.624;2022-10-03T16:26:35;19.60;1.00
3876;DHT22;1953;51.222;6.624;2022-10-03T16:31:25;19.50;1.00
3876;DHT22;1953;51.222;6.624;2022-10-03T16:36:16;19.40;1.00
3876;DHT22;1953;51.222;6.624;2022-10-03T16:41:00;19.50;1.00
3876;DHT22;1953;51.222;6.624;2022-10-03T16:45:45;19.40;1.00
3876;DHT22;1953;51.222;6.624;2022-10-03T16:50:28;19.30;1.00
3876;DHT22;1953;51.222;6.624;2022-10-03T16:55:15;19.20;1.00
3876;DHT22;1953;51.222;6.624;2022-10-03T16:59:59;18.90;1.00
3876;DHT22;1953;51.222;6.624;2022-10-03T17:04:48;18.80;1.00
3876;DHT22;1953;51.222;6.624;2022-10-03T17:09:37;18.70;1.00
3876;DHT22;1953;51.222;6.624;2022-10-03T17:14:24;18.40;1.00
3876;DHT22;1953;51.222;6.624;2022-10-03T17:19:17;18.20;1.00
3876;DHT22;1953;51.222;6.624;2022-10-03T17:24:05;18.10;1.00
3876;DHT22;1953;51.222;6.624;2022-10-03T17:28:54;17.90;1.00
3876;DHT22;1953;51.222;6.624;2022-10-03T17:33:43;17.70;1.00
3876;DHT22;1953;51.222;6.624;2022-10-03T17:38:29;17.60;1.00
3876;DHT22;1953;51.222;6.624;2022-10-03T17:43:22;17.50;1.00
3876;DHT22;1953;51.222;6.624;2022-10-03T17:48:12;17.40;1.00
3876;DHT22;1953;51.222;6.624;2022-10-03T17:53:00;17.30;1.00
3876;DHT22;1953;51.222;6.624;2022-10-03T17:57:46;17.10;1.00
3876;DHT22;1953;51.222;6.624;2022-10-03T18:02:34;16.90;1.00
3876;DHT22;1953;51.222;6.624;2022-10-03T18:07:20;16.70;1.00
3876;DHT22;1953;51.222;6.624;2022-10-03T18:12:14;16.70;1.00
3876;DHT22;1953;51.222;6.624;2022-10-03T18:17:04;16.70;1.00
3876;DHT22;1953;51.222;6.624;2022-10-03T18:21:57;16.60;1.00
3876;DHT22;1953;51.222;6.624;2022-10-03T18:26:44;16.50;1.00
3876;DHT22;1953;51.222;6.624;2022-10-03T18:31:31;16.50;1.00
3876;DHT22;1953;51.222;6.624;2022-10-03T18:36:18;16.40;1.00
3876;DHT22;1953;51.222;6.624;2022-10-03T18:41:02;16.30;1.00
3876;DHT22;1953;51.222;6.624;2022-10-03T18:45:47;16.20;1.00
3876;DHT22;1953;51.222;6.624;2022-10-03T18:50:43;16.10;1.00
3876;DHT22;1953;51.222;6.624;2022-10-03T18:55:34;16.10;1.00
3876;DHT22;1953;51.222;6.624;2022-10-03T19:00:19;16.00;1.00
3876;DHT22;1953;51.222;6.624;2022-10-03T19:05:10;15.90;1.00
3876;DHT22;1953;51.222;6.624;2022-10-03T19:10:12;15.90;1.00
3876;DHT22;1953;51.222;6.624;2022-10-03T19:15:04;15.90;1.00
3876;DHT22;1953;51.222;6.624;2022-10-03T19:19:53;15.70;1.00
3876;DHT22;1953;51.222;6.624;2022-10-03T19:24:39;15.70;1.00
3876;DHT22;1953;51.222;6.624;2022-10-03T19:29:27;15.70;1.00
3876;DHT22;1953;51.222;6.624;2022-10-03T19:34:16;15.60;1.00
3876;DHT22;1953;51.222;6.624;2022-10-03T19:39:01;15.60;1.00
3876;DHT22;1953;51.222;6.624;2022-10-03T19:43:46;15.50;1.00
3876;DHT22;1953;51.222;6.624;2022-10-03T19:48:33;15.50;1.00
3876;DHT22;1953;51.222;6.624;2022-10-03T19:53:17;16.50;1.00
3876;DHT22;1953;51.222;6.624;2022-10-03T19:58:02;15.30;1.00
3876;DHT22;1953;51.222;6.624;2022-10-03T20:02:53;15.20;1.00
3876;DHT22;1953;51.222;6.624;2022-10-03T20:07:43;15.20;1.00
3876;DHT22;1953;51.222;6.624;2022-10-03T20:12:28;15.10;1.00
3876;DHT22;1953;51.222;6.624;2022-10-03T20:17:13;15.00;1.00
3876;DHT22;1953;51.222;6.624;2022-10-03T20:21:57;15.00;1.00
3876;DHT22;1953;51.222;6.624;2022-10-03T20:26:50;14.90;1.00
3876;DHT22;1953;51.222;6.624;2022-10-03T20:31:36;14.80;1.00
3876;DHT22;1953;51.222;6.624;2022-10-03T20:36:20;14.70;1.00
3876;DHT22;1953;51.222;6.624;2022-10-03T20:41:06;14.60;1.00
3876;DHT22;1953;51.222;6.624;2022-10-03T20:46:02;14.50;1.00
3876;DHT22;1953;51.222;6.624;2022-10-03T20:50:49;14.50;1.00
3876;DHT22;1953;51.222;6.624;2022-10-03T20:55:33;14.40;1.00
3876;DHT22;1953;51.222;6.624;2022-10-03T21:00:21;14.30;1.00
3876;DHT22;1953;51.222;6.624;2022-10-03T21:05:13;14.20;1.00
3876;DHT22;1953;51.222;6.624;2022-10-03T21:10:05;14.20;1.00
3876;DHT22;1953;51.222;6.624;2022-10-03T21:14:55;14.10;1.00
3876;DHT22;1953;51.222;6.624;2022-10-03T21:19:45;14.10;1.00
3876;DHT22;1953;51.222;6.624;2022-10-03T21:24:34;14.10;1.00
3876;DHT22;1953;51.222;6.624;2022-10-03T21:29:26;14.00;1.00
3876;DHT22;1953;51.222;6.624;2022-10-03T21:34:18;13.80;1.00
3876;DHT22;1953;51.222;6.624;2022-10-03T21:39:15;13.80;1.00
3876;DHT22;1953;51.222;6.624;2022-10-03T21:44:01;13.80;1.00
3876;DHT22;1953;51.222;6.624;2022-10-03T21:49:00;13.80;1.00
3876;DHT22;1953;51.222;6.624;2022-10-03T21:53:48;13.80;1.00
3876;DHT22;1953;51.222;6.624;2022-10-03T21:58:43;13.80;1.00
3876;DHT22;1953;51.222;6.624;2022-10-03T22:03:33;13.80;1.00
3876;DHT22;1953;51.222;6.624;2022-10-03T22:08:21;13.70;1.00
3876;DHT22;1953;51.222;6.624;2022-10-03T22:13:06;13.80;1.00
3876;DHT22;1953;51.222;6.624;2022-10-03T22:17:54;13.80;1.00
3876;DHT22;1953;51.222;6.624;2022-10-03T22:22:48;13.80;1.00
3876;DHT22;1953;51.222;6.624;2022-10-03T22:27:38;13.80;1.00
3876;DHT22;1953;51.222;6.624;2022-10-03T22:32:27;13.80;1.00
3876;DHT22;1953;51.222;6.624;2022-10-03T22:37:14;13.70;1.00
3876;DHT22;1953;51.222;6.624;2022-10-03T22:41:59;13.70;1.00
3876;DHT22;1953;51.222;6.624;2022-10-03T22:46:47;13.60;1.00
3876;DHT22;1953;51.222;6.624;2022-10-03T22:51:32;13.60;1.00
3876;DHT22;1953;51.222;6.624;2022-10-03T22:56:37;13.50;1.00
3876;DHT22;1953;51.222;6.624;2022-10-03T23:01:22;13.50;1.00
3876;DHT22;1953;51.222;6.624;2022-10-03T23:06:32;13.50;1.00
3876;DHT22;1953;51.222;6.624;2022-10-03T23:11:22;13.30;1.00
3876;DHT22;1953;51.222;6.624;2022-10-03T23:16:20;13.20;1.00
3876;DHT22;1953;51.222;6.624;2022-10-03T23:21:07;13.20;1.00
3876;DHT22;1953;51.222;6.624;2022-10-03T23:25:59;13.30;1.00
3876;DHT22;1953;51.222;6.624;2022-10-03T23:30:47;13.30;1.00
3876;DHT22;1953;51.222;6.624;2022-10-03T23:35:38;13.30;1.00
3876;DHT22;1953;51.222;6.624;2022-10-03T23:40:38;13.30;1.00
3876;DHT22;1953;51.222;6.624;2022-10-03T23:45:23;13.30;1.00
3876;DHT22;1953;51.222;6.624;2022-10-03T23:50:07;13.30;1.00
3876;DHT22;1953;51.222;6.624;2022-10-03T23:54:51;13.40;1.00
3876;DHT22;1953;51.222;6.624;2022-10-03T23:59:37;13.40;1.00
